createdAt,value
2023-04-18T00:00:12.384Z,30.91
2023-04-18T00:00:42.429Z,30.91
2023-04-18T00:01:12.465Z,30.87
2023-04-18T00:01:42.509Z,30.97
2023-04-18T00:02:12.619Z,30.94
2023-04-18T00:02:42.769Z,30.97
2023-04-18T00:03:12.994Z,30.94
2023-04-18T00:03:43.084Z,30.94
2023-04-18T00:04:13.487Z,30.92
2023-04-18T00:04:42.916Z,30.95
2023-04-18T00:05:12.943Z,30.92
2023-04-18T00:05:42.976Z,30.91
2023-04-18T00:06:13.022Z,30.83
2023-04-18T00:06:43.037Z,30.91
2023-04-18T00:07:13.070Z,30.98
2023-04-18T00:07:43.097Z,30.91
2023-04-18T00:08:13.170Z,30.94
2023-04-18T00:08:43.202Z,30.96
2023-04-18T00:09:13.273Z,30.94
2023-04-18T00:09:43.391Z,30.91
2023-04-18T00:10:13.317Z,30.95
2023-04-18T00:10:43.440Z,30.92
2023-04-18T00:11:13.436Z,30.87
2023-04-18T00:11:43.558Z,30.94
2023-04-18T00:12:13.557Z,30.91
2023-04-18T00:13:13.633Z,30.92
2023-04-18T00:13:43.630Z,30.97
2023-04-18T00:14:43.741Z,30.95
2023-04-18T00:15:13.726Z,30.94
2023-04-18T00:15:43.859Z,30.89
2023-04-18T00:16:13.861Z,30.86
2023-04-18T00:16:43.873Z,30.89
2023-04-18T00:17:14.042Z,30.89
2023-04-18T00:17:44.080Z,30.89
2023-04-18T00:18:14.096Z,30.89
2023-04-18T00:18:44.086Z,30.87
2023-04-18T00:19:14.113Z,30.83
2023-04-18T00:19:44.197Z,30.90
2023-04-18T00:20:14.246Z,30.89
2023-04-18T00:20:44.247Z,30.95
2023-04-18T00:21:14.274Z,30.90
2023-04-18T00:21:44.310Z,30.95
2023-04-18T00:22:14.342Z,30.97
2023-04-18T00:22:44.371Z,30.92
2023-04-18T00:23:14.414Z,30.97
2023-04-18T00:23:44.455Z,30.92
2023-04-18T00:24:14.643Z,30.95
2023-04-18T00:24:44.564Z,30.94
2023-04-18T00:25:14.592Z,30.94
2023-04-18T00:25:44.626Z,30.98
2023-04-18T00:26:14.656Z,30.90
2023-04-18T00:26:44.707Z,30.89
2023-04-18T00:27:14.719Z,30.91
2023-04-18T00:27:44.751Z,30.86
2023-04-18T00:28:14.915Z,30.87
2023-04-18T00:28:44.811Z,30.89
2023-04-18T00:29:14.855Z,30.87
2023-04-18T00:29:44.882Z,30.89
2023-04-18T00:30:14.911Z,30.92
2023-04-18T00:30:44.943Z,30.84
2023-04-18T00:31:15.032Z,30.87
2023-04-18T00:31:45.072Z,30.84
2023-04-18T00:32:15.112Z,30.87
2023-04-18T00:32:45.188Z,30.87
2023-04-18T00:33:15.242Z,30.89
2023-04-18T00:33:45.266Z,30.83
2023-04-18T00:34:15.575Z,30.81
2023-04-18T00:34:45.320Z,30.83
2023-04-18T00:35:15.333Z,30.83
2023-04-18T00:35:45.370Z,30.87
2023-04-18T00:36:15.400Z,30.83
2023-04-18T00:36:45.433Z,30.86
2023-04-18T00:37:15.478Z,30.81
2023-04-18T00:37:45.507Z,30.87
2023-04-18T00:38:15.556Z,30.83
2023-04-18T00:38:45.578Z,30.87
2023-04-18T00:39:15.617Z,30.84
2023-04-18T00:39:45.649Z,30.87
2023-04-18T00:40:15.675Z,30.84
2023-04-18T00:40:45.705Z,30.81
2023-04-18T00:41:15.740Z,30.83
2023-04-18T00:41:45.774Z,30.78
2023-04-18T00:42:15.813Z,30.79
2023-04-18T00:42:45.856Z,30.81
2023-04-18T00:43:15.886Z,30.79
2023-04-18T00:43:45.928Z,30.79
2023-04-18T00:44:16.261Z,30.79
2023-04-18T00:44:45.988Z,30.79
2023-04-18T00:45:16.044Z,30.81
2023-04-18T00:45:46.088Z,30.76
2023-04-18T00:46:16.125Z,30.85
2023-04-18T00:46:46.152Z,30.75
2023-04-18T00:47:16.188Z,30.75
2023-04-18T00:47:46.317Z,30.78
2023-04-18T00:48:16.343Z,30.81
2023-04-18T00:48:46.370Z,30.79
2023-04-18T00:49:16.403Z,30.79
2023-04-18T00:49:46.440Z,30.73
2023-04-18T00:50:16.515Z,30.74
2023-04-18T00:50:46.531Z,30.79
2023-04-18T00:51:16.559Z,30.73
2023-04-18T00:51:46.592Z,30.72
2023-04-18T00:52:16.630Z,30.73
2023-04-18T00:52:46.674Z,30.76
2023-04-18T00:53:16.714Z,30.66
2023-04-18T00:53:46.737Z,30.73
2023-04-18T00:54:16.776Z,30.71
2023-04-18T00:54:46.813Z,30.66
2023-04-18T00:55:16.852Z,30.74
2023-04-18T00:55:46.876Z,30.79
2023-04-18T00:56:16.904Z,30.76
2023-04-18T00:56:46.935Z,30.76
2023-04-18T00:57:16.965Z,30.67
2023-04-18T00:57:47.005Z,30.74
2023-04-18T00:58:17.037Z,30.71
2023-04-18T00:58:47.079Z,30.74
2023-04-18T00:59:17.108Z,30.73
2023-04-18T00:59:47.133Z,30.79
2023-04-18T01:00:17.170Z,30.79
2023-04-18T01:00:47.203Z,30.82
2023-04-18T01:01:17.257Z,30.84
2023-04-18T01:01:47.349Z,30.84
2023-04-18T01:02:17.407Z,30.80
2023-04-18T01:02:47.484Z,30.79
2023-04-18T01:03:17.675Z,30.80
2023-04-18T01:03:47.689Z,30.82
2023-04-18T01:04:17.827Z,30.82
2023-04-18T01:04:47.582Z,30.79
2023-04-18T01:05:17.604Z,30.80
2023-04-18T01:05:47.659Z,30.80
2023-04-18T01:06:17.665Z,30.79
2023-04-18T01:06:47.698Z,30.79
2023-04-18T01:07:17.729Z,30.77
2023-04-18T01:07:47.754Z,30.77
2023-04-18T01:08:17.790Z,30.76
2023-04-18T01:08:47.827Z,30.77
2023-04-18T01:09:17.857Z,30.74
2023-04-18T01:09:47.885Z,30.71
2023-04-18T01:10:17.892Z,30.77
2023-04-18T01:10:48.008Z,30.77
2023-04-18T01:11:18.134Z,30.82
2023-04-18T01:11:48.129Z,30.77
2023-04-18T01:12:18.250Z,30.76
2023-04-18T01:12:48.369Z,30.76
2023-04-18T01:13:18.367Z,30.76
2023-04-18T01:14:18.444Z,30.74
2023-04-18T01:14:48.434Z,30.76
2023-04-18T01:15:18.570Z,30.73
2023-04-18T01:15:48.687Z,30.74
2023-04-18T01:16:18.739Z,30.77
2023-04-18T01:16:48.747Z,30.76
2023-04-18T01:17:18.886Z,30.74
2023-04-18T01:17:48.928Z,30.73
2023-04-18T01:18:18.918Z,30.73
2023-04-18T01:18:48.912Z,30.73
2023-04-18T01:19:48.999Z,30.79
2023-04-18T01:20:19.005Z,30.73
2023-04-18T01:20:49.039Z,30.69
2023-04-18T01:21:19.099Z,30.73
2023-04-18T01:21:49.109Z,30.65
2023-04-18T01:22:19.135Z,30.77
2023-04-18T01:22:49.170Z,30.71
2023-04-18T01:23:19.210Z,30.76
2023-04-18T01:23:49.243Z,30.79
2023-04-18T01:24:19.276Z,30.76
2023-04-18T01:24:49.314Z,30.79
2023-04-18T01:25:19.345Z,30.74
2023-04-18T01:25:49.400Z,30.75
2023-04-18T01:26:19.426Z,30.74
2023-04-18T01:26:49.460Z,30.80
2023-04-18T01:27:19.500Z,30.75
2023-04-18T01:27:49.530Z,30.76
2023-04-18T01:28:19.565Z,30.73
2023-04-18T01:28:49.616Z,30.73
2023-04-18T01:29:19.628Z,30.80
2023-04-18T01:29:49.664Z,30.82
2023-04-18T01:30:19.697Z,30.77
2023-04-18T01:30:49.734Z,30.75
2023-04-18T01:31:19.780Z,30.74
2023-04-18T01:31:49.948Z,30.75
2023-04-18T01:32:19.873Z,30.74
2023-04-18T01:32:49.931Z,30.75
2023-04-18T01:33:19.952Z,30.74
2023-04-18T01:33:49.983Z,30.77
2023-04-18T01:34:20.035Z,30.77
2023-04-18T01:34:50.048Z,30.72
2023-04-18T01:35:20.106Z,30.77
2023-04-18T01:35:50.123Z,30.73
2023-04-18T01:36:20.159Z,30.74
2023-04-18T01:36:50.343Z,30.71
2023-04-18T01:37:20.221Z,30.72
2023-04-18T01:38:20.267Z,30.74
2023-04-18T01:38:50.302Z,30.66
2023-04-18T01:39:20.339Z,30.74
2023-04-18T01:39:50.376Z,30.71
2023-04-18T01:40:20.407Z,30.78
2023-04-18T01:40:50.434Z,30.71
2023-04-18T01:41:20.484Z,30.66
2023-04-18T01:41:50.501Z,30.77
2023-04-18T01:42:20.532Z,30.73
2023-04-18T01:42:50.573Z,30.74
2023-04-18T01:43:20.610Z,30.69
2023-04-18T01:43:50.638Z,30.69
2023-04-18T01:44:20.676Z,30.72
2023-04-18T01:44:50.701Z,30.71
2023-04-18T01:45:20.745Z,30.78
2023-04-18T01:45:50.769Z,30.64
2023-04-18T01:46:20.855Z,30.75
2023-04-18T01:46:50.899Z,30.66
2023-04-18T01:47:20.965Z,30.74
2023-04-18T01:47:51.095Z,30.71
2023-04-18T01:48:21.064Z,30.69
2023-04-18T01:48:51.112Z,30.68
2023-04-18T01:49:21.138Z,30.69
2023-04-18T01:49:51.165Z,30.71
2023-04-18T01:50:21.198Z,30.74
2023-04-18T01:50:51.226Z,30.74
2023-04-18T01:51:21.259Z,30.70
2023-04-18T01:51:51.310Z,30.75
2023-04-18T01:52:21.363Z,30.72
2023-04-18T01:52:51.425Z,30.71
2023-04-18T01:53:21.446Z,30.70
2023-04-18T01:53:51.488Z,30.64
2023-04-18T01:54:21.514Z,30.75
2023-04-18T01:54:51.544Z,30.69
2023-04-18T01:55:21.599Z,30.67
2023-04-18T01:55:51.617Z,30.72
2023-04-18T01:56:21.671Z,30.70
2023-04-18T01:56:51.694Z,30.64
2023-04-18T01:57:21.728Z,30.66
2023-04-18T01:57:51.763Z,30.72
2023-04-18T01:58:21.822Z,30.72
2023-04-18T01:58:51.852Z,30.75
2023-04-18T01:59:21.879Z,30.73
2023-04-18T01:59:51.913Z,30.67
2023-04-18T02:00:21.942Z,30.75
2023-04-18T02:00:52.001Z,30.72
2023-04-18T02:01:22.061Z,30.73
2023-04-18T02:01:52.175Z,30.72
2023-04-18T02:02:22.225Z,30.73
2023-04-18T02:02:52.343Z,30.75
2023-04-18T02:03:22.585Z,30.72
2023-04-18T02:03:52.601Z,30.67
2023-04-18T02:04:22.460Z,30.69
2023-04-18T02:04:52.477Z,30.69
2023-04-18T02:05:22.512Z,30.67
2023-04-18T02:05:52.546Z,30.69
2023-04-18T02:06:22.575Z,30.69
2023-04-18T02:06:52.613Z,30.69
2023-04-18T02:07:22.651Z,30.67
2023-04-18T02:07:52.756Z,30.70
2023-04-18T02:08:22.774Z,30.63
2023-04-18T02:08:52.817Z,30.63
2023-04-18T02:09:22.846Z,30.65
2023-04-18T02:09:52.876Z,30.64
2023-04-18T02:10:22.887Z,30.64
2023-04-18T02:11:22.951Z,30.62
2023-04-18T02:11:52.956Z,30.62
2023-04-18T02:12:23.070Z,30.66
2023-04-18T02:12:53.066Z,30.62
2023-04-18T02:13:53.147Z,30.64
2023-04-18T02:14:23.139Z,30.64
2023-04-18T02:15:23.233Z,30.64
2023-04-18T02:15:53.227Z,30.64
2023-04-18T02:16:53.343Z,30.64
2023-04-18T02:17:23.595Z,30.62
2023-04-18T02:17:53.386Z,30.59
2023-04-18T02:18:23.399Z,30.58
2023-04-18T02:18:53.398Z,30.61
2023-04-18T02:19:53.486Z,30.67
2023-04-18T02:20:23.513Z,30.59
2023-04-18T02:20:53.587Z,30.66
2023-04-18T02:21:23.644Z,30.58
2023-04-18T02:21:53.676Z,30.59
2023-04-18T02:22:23.704Z,30.59
2023-04-18T02:22:53.738Z,30.55
2023-04-18T02:23:23.801Z,30.62
2023-04-18T02:23:53.808Z,30.58
2023-04-18T02:24:23.842Z,30.62
2023-04-18T02:24:53.881Z,30.64
2023-04-18T02:25:23.917Z,30.61
2023-04-18T02:25:53.953Z,30.57
2023-04-18T02:26:23.993Z,30.64
2023-04-18T02:26:54.015Z,30.65
2023-04-18T02:27:24.049Z,30.69
2023-04-18T02:27:54.077Z,30.64
2023-04-18T02:28:24.117Z,30.65
2023-04-18T02:28:54.149Z,30.62
2023-04-18T02:29:24.186Z,30.62
2023-04-18T02:29:54.220Z,30.59
2023-04-18T02:30:24.254Z,30.61
2023-04-18T02:30:54.292Z,30.59
2023-04-18T02:31:24.373Z,30.58
2023-04-18T02:31:54.429Z,30.55
2023-04-18T02:32:24.493Z,30.61
2023-04-18T02:32:54.616Z,30.59
2023-04-18T02:33:24.687Z,30.59
2023-04-18T02:33:54.710Z,30.58
2023-04-18T02:34:24.742Z,30.57
2023-04-18T02:34:54.780Z,30.58
2023-04-18T02:35:24.812Z,30.59
2023-04-18T02:35:54.837Z,30.62
2023-04-18T02:36:24.873Z,30.61
2023-04-18T02:36:54.903Z,30.62
2023-04-18T02:37:24.946Z,30.61
2023-04-18T02:37:54.979Z,30.68
2023-04-18T02:38:25.020Z,30.59
2023-04-18T02:38:55.085Z,30.61
2023-04-18T02:39:25.096Z,30.57
2023-04-18T02:39:55.128Z,30.59
2023-04-18T02:40:25.164Z,30.58
2023-04-18T02:40:55.192Z,30.62
2023-04-18T02:41:25.236Z,30.57
2023-04-18T02:41:55.264Z,30.64
2023-04-18T02:42:25.300Z,30.64
2023-04-18T02:42:55.328Z,30.57
2023-04-18T02:43:25.375Z,30.64
2023-04-18T02:43:55.409Z,30.68
2023-04-18T02:44:25.435Z,30.61
2023-04-18T02:44:55.473Z,30.64
2023-04-18T02:45:25.504Z,30.61
2023-04-18T02:45:55.551Z,30.64
2023-04-18T02:46:25.645Z,30.57
2023-04-18T02:46:55.581Z,30.59
2023-04-18T02:47:25.648Z,30.59
2023-04-18T02:47:56.738Z,30.59
2023-04-18T02:48:25.727Z,30.59
2023-04-18T02:48:55.762Z,30.59
2023-04-18T02:49:25.815Z,30.62
2023-04-18T02:49:55.822Z,30.64
2023-04-18T02:50:25.867Z,30.54
2023-04-18T02:50:55.891Z,30.65
2023-04-18T02:51:25.925Z,30.59
2023-04-18T02:51:55.950Z,30.60
2023-04-18T02:52:25.988Z,30.60
2023-04-18T02:52:56.089Z,30.59
2023-04-18T02:53:26.016Z,30.57
2023-04-18T02:53:56.052Z,30.56
2023-04-18T02:54:26.121Z,30.62
2023-04-18T02:54:56.131Z,30.62
2023-04-18T02:55:26.163Z,30.56
2023-04-18T02:55:56.191Z,30.64
2023-04-18T02:56:26.226Z,30.57
2023-04-18T02:56:56.258Z,30.58
2023-04-18T02:57:26.300Z,30.59
2023-04-18T02:57:56.333Z,30.63
2023-04-18T02:58:26.380Z,30.59
2023-04-18T02:58:56.397Z,30.57
2023-04-18T02:59:26.439Z,30.65
2023-04-18T02:59:56.462Z,30.59
2023-04-18T03:00:26.497Z,30.58
2023-04-18T03:00:56.556Z,30.67
2023-04-18T03:01:26.598Z,30.60
2023-04-18T03:01:56.652Z,30.63
2023-04-18T03:02:26.800Z,30.62
2023-04-18T03:02:56.958Z,30.60
2023-04-18T03:03:26.885Z,30.57
2023-04-18T03:03:56.929Z,30.62
2023-04-18T03:04:26.977Z,30.65
2023-04-18T03:04:57.024Z,30.65
2023-04-18T03:05:27.070Z,30.65
2023-04-18T03:05:57.110Z,30.63
2023-04-18T03:06:27.127Z,30.63
2023-04-18T03:06:57.155Z,30.60
2023-04-18T03:07:27.191Z,30.59
2023-04-18T03:07:57.217Z,30.62
2023-04-18T03:08:27.264Z,30.62
2023-04-18T03:08:57.291Z,30.62
2023-04-18T03:09:27.319Z,30.65
2023-04-18T03:09:57.378Z,30.60
2023-04-18T03:10:27.361Z,30.62
2023-04-18T03:10:57.484Z,30.62
2023-04-18T03:11:27.488Z,30.63
2023-04-18T03:12:27.546Z,30.59
2023-04-18T03:12:57.547Z,30.56
2023-04-18T03:13:57.546Z,30.54
2023-04-18T03:14:27.666Z,30.50
2023-04-18T03:14:57.782Z,30.47
2023-04-18T03:15:27.902Z,30.48
2023-04-18T03:15:58.066Z,30.42
2023-04-18T03:16:28.106Z,30.41
2023-04-18T03:16:58.116Z,30.37
2023-04-18T03:17:28.239Z,30.33
2023-04-18T03:17:58.286Z,30.38
2023-04-18T03:18:28.289Z,30.30
2023-04-18T03:18:58.290Z,30.34
2023-04-18T03:19:28.406Z,30.27
2023-04-18T03:19:58.422Z,30.29
2023-04-18T03:20:28.444Z,30.26
2023-04-18T03:20:58.578Z,30.21
2023-04-18T03:21:28.486Z,30.21
2023-04-18T03:21:58.528Z,30.23
2023-04-18T03:22:28.556Z,30.17
2023-04-18T03:22:58.596Z,30.18
2023-04-18T03:23:28.618Z,30.17
2023-04-18T03:23:58.660Z,30.15
2023-04-18T03:24:28.682Z,30.07
2023-04-18T03:24:58.717Z,30.07
2023-04-18T03:25:28.777Z,30.07
2023-04-18T03:25:58.776Z,29.99
2023-04-18T03:26:28.807Z,30.04
2023-04-18T03:26:58.840Z,30.04
2023-04-18T03:27:28.870Z,30.05
2023-04-18T03:27:58.919Z,30.04
2023-04-18T03:28:28.950Z,30.02
2023-04-18T03:28:58.982Z,30.02
2023-04-18T03:29:29.009Z,29.96
2023-04-18T03:29:59.049Z,29.99
2023-04-18T03:30:29.086Z,30.04
2023-04-18T03:30:59.148Z,30.04
2023-04-18T03:31:29.251Z,30.04
2023-04-18T03:31:59.275Z,30.04
2023-04-18T03:32:29.406Z,30.00
2023-04-18T03:32:59.378Z,30.02
2023-04-18T03:33:29.413Z,30.04
2023-04-18T03:33:59.454Z,29.99
2023-04-18T03:34:29.481Z,29.93
2023-04-18T03:34:59.516Z,30.04
2023-04-18T03:35:29.554Z,30.01
2023-04-18T03:35:59.588Z,30.01
2023-04-18T03:36:29.617Z,30.08
2023-04-18T03:36:59.647Z,30.05
2023-04-18T03:37:29.679Z,30.05
2023-04-18T03:37:59.731Z,30.13
2023-04-18T03:38:29.755Z,30.16
2023-04-18T03:38:59.785Z,30.17
2023-04-18T03:39:29.806Z,30.17
2023-04-18T03:39:59.836Z,30.18
2023-04-18T03:40:29.885Z,30.19
2023-04-18T03:40:59.937Z,30.19
2023-04-18T03:41:29.945Z,30.20
2023-04-18T03:41:59.972Z,30.25
2023-04-18T03:42:30.006Z,30.23
2023-04-18T03:43:00.036Z,30.25
2023-04-18T03:43:30.069Z,30.26
2023-04-18T03:44:00.146Z,30.22
2023-04-18T03:44:30.157Z,30.23
2023-04-18T03:45:00.191Z,30.21
2023-04-18T03:45:30.220Z,30.22
2023-04-18T03:46:00.295Z,30.18
2023-04-18T03:46:30.358Z,30.19
2023-04-18T03:47:00.392Z,30.23
2023-04-18T03:47:30.465Z,30.22
2023-04-18T03:48:00.548Z,30.19
2023-04-18T03:48:30.576Z,30.22
2023-04-18T03:49:00.601Z,30.26
2023-04-18T03:49:30.629Z,30.31
2023-04-18T03:50:00.702Z,30.28
2023-04-18T03:50:30.725Z,30.27
2023-04-18T03:51:00.771Z,30.31
2023-04-18T03:51:30.814Z,30.37
2023-04-18T03:52:00.881Z,30.25
2023-04-18T03:52:30.933Z,30.19
2023-04-18T03:53:00.970Z,30.19
2023-04-18T03:53:31.001Z,30.16
2023-04-18T03:54:01.037Z,30.13
2023-04-18T03:54:31.069Z,30.04
2023-04-18T03:55:01.095Z,30.13
2023-04-18T03:55:31.130Z,30.15
2023-04-18T03:56:01.161Z,30.14
2023-04-18T03:56:31.220Z,30.19
2023-04-18T03:57:01.225Z,30.25
2023-04-18T03:57:31.257Z,30.31
2023-04-18T03:58:01.298Z,30.22
2023-04-18T03:58:31.329Z,30.14
2023-04-18T03:59:01.363Z,30.34
2023-04-18T03:59:31.416Z,30.20
2023-04-18T04:00:01.426Z,30.22
2023-04-18T04:00:31.464Z,30.23
2023-04-18T04:01:01.506Z,30.25
2023-04-18T04:01:31.546Z,30.36
2023-04-18T04:02:01.857Z,30.29
2023-04-18T04:02:31.679Z,30.32
2023-04-18T04:03:01.923Z,30.25
2023-04-18T04:03:31.835Z,30.25
2023-04-18T04:04:01.895Z,30.23
2023-04-18T04:04:31.784Z,30.25
2023-04-18T04:05:01.928Z,30.17
2023-04-18T04:05:31.853Z,30.17
2023-04-18T04:06:01.942Z,30.35
2023-04-18T04:06:31.991Z,30.26
2023-04-18T04:07:02.089Z,30.17
2023-04-18T04:07:32.035Z,30.31
2023-04-18T04:08:02.137Z,30.28
2023-04-18T04:08:32.149Z,30.29
2023-04-18T04:09:02.180Z,30.32
2023-04-18T04:09:32.232Z,30.48
2023-04-18T04:10:02.232Z,30.62
2023-04-18T04:10:32.229Z,30.42
2023-04-18T04:11:02.349Z,29.98
2023-04-18T04:11:32.382Z,29.85
2023-04-18T04:12:02.386Z,29.94
2023-04-18T04:12:32.490Z,29.73
2023-04-18T04:13:02.853Z,29.71
2023-04-18T04:13:32.604Z,29.68
2023-04-18T04:14:32.804Z,29.89
2023-04-18T04:15:02.798Z,29.80
2023-04-18T04:15:32.809Z,29.77
2023-04-18T04:16:02.970Z,29.80
2023-04-18T04:16:32.996Z,29.82
2023-04-18T04:17:03.014Z,29.65
2023-04-18T04:17:33.023Z,29.37
2023-04-18T04:18:03.097Z,29.53
2023-04-18T04:18:33.114Z,29.33
2023-04-18T04:19:03.112Z,29.29
2023-04-18T04:19:33.229Z,29.35
2023-04-18T04:20:03.246Z,29.16
2023-04-18T04:20:33.277Z,29.06
2023-04-18T04:21:03.315Z,29.25
2023-04-18T04:21:33.348Z,29.20
2023-04-18T04:22:03.384Z,29.14
2023-04-18T04:22:33.422Z,29.12
2023-04-18T04:23:03.463Z,29.09
2023-04-18T04:23:33.495Z,29.01
2023-04-18T04:24:03.537Z,29.07
2023-04-18T04:24:33.563Z,29.05
2023-04-18T04:25:03.593Z,29.06
2023-04-18T04:25:33.617Z,29.18
2023-04-18T04:26:03.651Z,29.23
2023-04-18T04:26:33.675Z,29.28
2023-04-18T04:27:03.712Z,29.33
2023-04-18T04:27:33.789Z,29.50
2023-04-18T04:28:03.815Z,29.55
2023-04-18T04:28:33.839Z,29.61
2023-04-18T04:29:03.877Z,29.66
2023-04-18T04:29:33.906Z,29.67
2023-04-18T04:30:03.941Z,29.64
2023-04-18T04:30:33.967Z,29.75
2023-04-18T04:31:04.003Z,29.76
2023-04-18T04:31:34.075Z,29.76
2023-04-18T04:32:04.173Z,29.80
2023-04-18T04:32:34.140Z,29.77
2023-04-18T04:33:04.183Z,29.76
2023-04-18T04:33:34.216Z,29.82
2023-04-18T04:34:04.244Z,29.79
2023-04-18T04:34:34.275Z,29.88
2023-04-18T04:35:04.301Z,30.01
2023-04-18T04:35:34.336Z,29.99
2023-04-18T04:36:04.404Z,29.98
2023-04-18T04:36:34.403Z,30.24
2023-04-18T04:37:04.441Z,30.06
2023-04-18T04:37:34.508Z,30.16
2023-04-18T04:38:04.540Z,30.17
2023-04-18T04:38:34.559Z,30.32
2023-04-18T04:39:04.595Z,30.18
2023-04-18T04:39:34.628Z,30.09
2023-04-18T04:40:04.663Z,29.91
2023-04-18T04:40:34.697Z,29.75
2023-04-18T04:41:04.728Z,29.67
2023-04-18T04:41:34.754Z,29.62
2023-04-18T04:42:04.797Z,29.34
2023-04-18T04:42:34.826Z,29.41
2023-04-18T04:43:04.883Z,29.46
2023-04-18T04:43:34.891Z,29.32
2023-04-18T04:44:04.965Z,29.32
2023-04-18T04:44:35.091Z,29.44
2023-04-18T04:45:05.035Z,29.45
2023-04-18T04:45:35.051Z,29.59
2023-04-18T04:46:05.146Z,29.49
2023-04-18T04:46:35.149Z,29.38
2023-04-18T04:47:05.196Z,29.42
2023-04-18T04:47:35.285Z,29.57
2023-04-18T04:48:05.370Z,29.57
2023-04-18T04:48:35.327Z,29.69
2023-04-18T04:49:05.363Z,29.91
2023-04-18T04:49:35.394Z,29.79
2023-04-18T04:50:05.426Z,29.79
2023-04-18T04:50:35.461Z,29.80
2023-04-18T04:51:05.497Z,29.70
2023-04-18T04:51:35.542Z,29.51
2023-04-18T04:52:05.572Z,29.56
2023-04-18T04:52:35.604Z,29.67
2023-04-18T04:53:05.637Z,29.74
2023-04-18T04:53:35.667Z,29.76
2023-04-18T04:54:05.704Z,29.62
2023-04-18T04:54:35.748Z,29.16
2023-04-18T04:55:05.764Z,29.29
2023-04-18T04:55:35.808Z,29.47
2023-04-18T04:56:05.828Z,29.40
2023-04-18T04:56:35.858Z,29.62
2023-04-18T04:57:05.886Z,29.70
2023-04-18T04:57:35.931Z,29.97
2023-04-18T04:58:05.963Z,30.11
2023-04-18T04:58:36.025Z,30.48
2023-04-18T04:59:06.026Z,30.74
2023-04-18T04:59:36.068Z,30.67
2023-04-18T05:00:06.088Z,30.58
2023-04-18T05:00:36.132Z,30.49
2023-04-18T05:01:06.247Z,30.69
2023-04-18T05:01:36.326Z,31.01
2023-04-18T05:02:06.369Z,30.79
2023-04-18T05:02:36.435Z,30.66
2023-04-18T05:03:06.440Z,30.94
2023-04-18T05:03:36.532Z,30.61
2023-04-18T05:04:06.570Z,30.46
2023-04-18T05:04:36.723Z,30.32
2023-04-18T05:05:06.633Z,30.19
2023-04-18T05:05:36.659Z,30.07
2023-04-18T05:06:06.691Z,29.74
2023-04-18T05:06:37.913Z,30.05
2023-04-18T05:07:06.729Z,30.16
2023-04-18T05:07:36.766Z,29.87
2023-04-18T05:08:06.798Z,29.90
2023-04-18T05:08:36.859Z,30.00
2023-04-18T05:09:06.877Z,30.06
2023-04-18T05:09:36.916Z,30.33
2023-04-18T05:10:06.942Z,30.55
2023-04-18T05:10:37.133Z,30.74
2023-04-18T05:11:07.099Z,31.11
2023-04-18T05:11:37.096Z,31.38
2023-04-18T05:12:07.213Z,31.85
2023-04-18T05:12:37.216Z,31.53
2023-04-18T05:13:37.310Z,31.75
2023-04-18T05:14:07.339Z,31.91
2023-04-18T05:14:37.326Z,31.65
2023-04-18T05:15:37.411Z,31.49
2023-04-18T05:16:07.409Z,31.58
2023-04-18T05:16:37.589Z,31.32
2023-04-18T05:17:07.573Z,31.40
2023-04-18T05:17:37.655Z,31.37
2023-04-18T05:18:07.694Z,31.37
2023-04-18T05:18:37.684Z,31.17
2023-04-18T05:19:07.803Z,31.03
2023-04-18T05:19:37.922Z,31.08
2023-04-18T05:20:07.922Z,31.16
2023-04-18T05:20:37.957Z,31.23
2023-04-18T05:21:07.983Z,31.28
2023-04-18T05:21:38.017Z,31.42
2023-04-18T05:22:08.052Z,31.39
2023-04-18T05:22:38.084Z,31.30
2023-04-18T05:23:08.116Z,31.39
2023-04-18T05:23:38.142Z,31.40
2023-04-18T05:24:08.197Z,31.43
2023-04-18T05:24:38.202Z,31.36
2023-04-18T05:25:08.248Z,31.36
2023-04-18T05:25:38.267Z,31.32
2023-04-18T05:26:08.292Z,31.49
2023-04-18T05:26:38.324Z,31.41
2023-04-18T05:27:08.374Z,31.30
2023-04-18T05:27:38.392Z,31.30
2023-04-18T05:28:08.478Z,31.27
2023-04-18T05:28:38.540Z,31.23
2023-04-18T05:29:08.580Z,31.05
2023-04-18T05:29:38.619Z,31.11
2023-04-18T05:30:08.625Z,31.00
2023-04-18T05:30:38.690Z,31.14
2023-04-18T05:31:08.728Z,31.00
2023-04-18T05:31:38.792Z,31.00
2023-04-18T05:32:08.813Z,30.89
2023-04-18T05:32:38.968Z,30.85
2023-04-18T05:33:08.967Z,30.72
2023-04-18T05:33:38.885Z,30.74
2023-04-18T05:34:08.909Z,30.76
2023-04-18T05:34:39.042Z,30.91
2023-04-18T05:35:09.060Z,30.93
2023-04-18T05:35:39.084Z,30.96
2023-04-18T05:36:09.109Z,30.93
2023-04-18T05:36:39.142Z,30.85
2023-04-18T05:37:09.177Z,30.79
2023-04-18T05:37:39.203Z,30.82
2023-04-18T05:38:09.235Z,30.84
2023-04-18T05:38:39.269Z,30.62
2023-04-18T05:39:09.293Z,30.53
2023-04-18T05:39:39.335Z,30.58
2023-04-18T05:40:09.375Z,30.55
2023-04-18T05:40:39.384Z,30.51
2023-04-18T05:41:09.416Z,30.44
2023-04-18T05:41:39.458Z,30.35
2023-04-18T05:42:09.497Z,30.23
2023-04-18T05:42:39.525Z,30.21
2023-04-18T05:43:09.562Z,30.24
2023-04-18T05:43:39.596Z,30.23
2023-04-18T05:44:09.629Z,30.23
2023-04-18T05:44:39.669Z,29.88
2023-04-18T05:45:09.708Z,30.16
2023-04-18T05:45:39.721Z,30.07
2023-04-18T05:46:09.781Z,29.95
2023-04-18T05:46:39.919Z,30.04
2023-04-18T05:47:09.911Z,30.13
2023-04-18T05:47:40.081Z,30.10
2023-04-18T05:48:10.049Z,30.16
2023-04-18T05:48:40.066Z,30.27
2023-04-18T05:49:10.093Z,30.41
2023-04-18T05:49:40.127Z,30.33
2023-04-18T05:50:10.171Z,30.33
2023-04-18T05:50:40.189Z,30.30
2023-04-18T05:51:11.699Z,30.24
2023-04-18T05:51:40.264Z,30.26
2023-04-18T05:52:10.295Z,29.72
2023-04-18T05:52:40.343Z,30.08
2023-04-18T05:53:10.380Z,30.12
2023-04-18T05:53:40.394Z,29.98
2023-04-18T05:54:10.427Z,30.06
2023-04-18T05:54:40.461Z,30.16
2023-04-18T05:55:10.502Z,30.13
2023-04-18T05:55:40.530Z,30.17
2023-04-18T05:56:10.551Z,29.96
2023-04-18T05:56:40.600Z,30.03
2023-04-18T05:57:10.620Z,29.77
2023-04-18T05:57:40.659Z,29.81
2023-04-18T05:58:10.689Z,29.73
2023-04-18T05:58:40.732Z,29.66
2023-04-18T05:59:10.773Z,29.77
2023-04-18T05:59:40.783Z,29.79
2023-04-18T06:00:10.813Z,29.73
2023-04-18T06:00:40.928Z,29.79
2023-04-18T06:01:10.925Z,30.01
2023-04-18T06:01:40.980Z,30.06
2023-04-18T06:02:11.084Z,30.08
2023-04-18T06:02:41.438Z,30.05
2023-04-18T06:03:11.796Z,30.11
2023-04-18T06:03:41.353Z,30.17
2023-04-18T06:04:11.554Z,30.02
2023-04-18T06:04:41.392Z,30.17
2023-04-18T06:05:11.612Z,30.14
2023-04-18T06:05:41.409Z,30.12
2023-04-18T06:06:11.434Z,30.05
2023-04-18T06:06:41.488Z,29.70
2023-04-18T06:07:11.531Z,29.83
2023-04-18T06:07:41.560Z,29.81
2023-04-18T06:08:11.598Z,29.86
2023-04-18T06:08:41.624Z,29.91
2023-04-18T06:09:11.646Z,29.95
2023-04-18T06:09:41.680Z,30.01
2023-04-18T06:10:11.690Z,29.99
2023-04-18T06:10:41.805Z,29.97
2023-04-18T06:11:11.796Z,30.01
2023-04-18T06:11:41.917Z,29.95
2023-04-18T06:12:12.036Z,29.86
2023-04-18T06:12:42.227Z,29.81
2023-04-18T06:13:12.250Z,29.77
2023-04-18T06:13:42.371Z,29.78
2023-04-18T06:14:12.707Z,29.92
2023-04-18T06:14:42.582Z,30.03
2023-04-18T06:15:12.599Z,30.00
2023-04-18T06:15:42.713Z,30.03
2023-04-18T06:16:12.642Z,29.98
2023-04-18T06:16:42.708Z,29.86
2023-04-18T06:17:12.723Z,29.96
2023-04-18T06:17:42.761Z,29.92
2023-04-18T06:18:12.794Z,29.91
2023-04-18T06:18:42.913Z,29.88
2023-04-18T06:19:13.038Z,29.94
2023-04-18T06:19:43.151Z,29.99
2023-04-18T06:20:13.169Z,29.99
2023-04-18T06:20:43.197Z,29.94
2023-04-18T06:21:13.223Z,29.90
2023-04-18T06:21:43.263Z,29.81
2023-04-18T06:22:13.294Z,29.79
2023-04-18T06:22:43.330Z,29.73
2023-04-18T06:23:13.374Z,29.56
2023-04-18T06:23:43.392Z,29.68
2023-04-18T06:24:13.765Z,29.39
2023-04-18T06:24:43.512Z,29.38
2023-04-18T06:25:13.538Z,29.44
2023-04-18T06:25:43.596Z,29.04
2023-04-18T06:26:13.610Z,28.98
2023-04-18T06:26:43.653Z,29.05
2023-04-18T06:27:24.393Z,29.04
2023-04-18T06:27:43.727Z,29.14
2023-04-18T06:28:13.782Z,29.02
2023-04-18T06:28:43.806Z,29.16
2023-04-18T06:29:13.868Z,29.05
2023-04-18T06:29:43.891Z,29.01
2023-04-18T06:30:13.909Z,28.85
2023-04-18T06:30:44.201Z,29.11
2023-04-18T06:31:14.032Z,29.05
2023-04-18T06:31:44.065Z,29.05
2023-04-18T06:32:14.077Z,29.11
2023-04-18T06:32:44.188Z,28.82
2023-04-18T06:33:14.202Z,29.03
2023-04-18T06:33:44.241Z,28.85
2023-04-18T06:34:14.510Z,28.93